createdAt,value
2023-05-24T00:00:33.054Z,4.10
2023-05-24T00:03:03.024Z,4.22
2023-05-24T00:05:32.042Z,4.07
2023-05-24T00:08:00.425Z,4.25
2023-05-24T00:10:28.432Z,4.13
2023-05-24T00:12:56.413Z,4.07
2023-05-24T00:15:24.697Z,4.35
2023-05-24T00:17:52.787Z,3.80
2023-05-24T00:20:20.960Z,3.92
2023-05-24T00:22:49.244Z,3.50
2023-05-24T00:25:17.452Z,3.88
2023-05-24T00:27:45.578Z,4.00
2023-05-24T00:30:13.633Z,4.32
2023-05-24T00:32:43.516Z,4.35
2023-05-24T00:35:11.744Z,4.03
2023-05-24T00:37:45.214Z,3.70
2023-05-24T00:42:41.591Z,3.80
2023-05-24T00:45:10.156Z,4.10
2023-05-24T00:47:38.190Z,3.75
2023-05-24T00:50:08.811Z,4.07
2023-05-24T00:52:37.671Z,3.88
2023-05-24T00:55:07.492Z,3.80
2023-05-24T00:57:37.036Z,4.15
2023-05-24T01:00:08.083Z,3.95
2023-05-24T01:02:36.420Z,3.78
2023-05-24T01:05:06.079Z,3.90
2023-05-24T01:08:00.171Z,4.18
2023-05-24T01:10:36.879Z,3.90
2023-05-24T01:13:33.531Z,3.80
2023-05-24T01:16:13.805Z,4.03
2023-05-24T01:18:47.896Z,4.10
2023-05-24T01:21:21.387Z,3.80
2023-05-24T01:26:56.547Z,4.13
2023-05-24T01:29:25.596Z,4.30
2023-05-24T01:31:54.009Z,3.97
2023-05-24T01:34:21.928Z,3.75
2023-05-24T01:36:49.829Z,3.95
2023-05-24T01:39:18.577Z,4.03
2023-05-24T01:42:22.496Z,3.75
2023-05-24T01:44:53.453Z,3.60
2023-05-24T01:47:39.772Z,3.92
2023-05-24T01:50:16.313Z,3.90
2023-05-24T01:52:46.772Z,3.75
2023-05-24T01:55:17.630Z,3.75
2023-05-24T01:57:48.386Z,3.35
2023-05-24T02:00:18.503Z,3.40
2023-05-24T02:02:46.961Z,3.72
2023-05-24T02:05:15.028Z,3.80
2023-05-24T02:07:43.107Z,3.55
2023-05-24T02:10:11.281Z,3.20
2023-05-24T02:12:39.451Z,3.67
2023-05-24T02:15:08.208Z,3.40
2023-05-24T02:17:36.336Z,3.70
2023-05-24T02:20:04.718Z,3.40
2023-05-24T02:22:34.328Z,3.75
2023-05-24T02:25:02.400Z,3.55
2023-05-24T02:27:30.606Z,3.13
2023-05-24T02:29:58.886Z,3.67
2023-05-24T02:32:26.862Z,3.05
2023-05-24T02:34:54.911Z,3.20
2023-05-24T02:37:23.099Z,3.40
2023-05-24T02:39:51.404Z,3.70
2023-05-24T02:42:19.647Z,3.38
2023-05-24T02:44:52.709Z,3.50
2023-05-24T02:47:20.904Z,3.10
2023-05-24T02:49:48.975Z,3.30
2023-05-24T02:52:21.732Z,3.60
2023-05-24T02:54:50.594Z,2.97
2023-05-24T02:57:20.745Z,3.30
2023-05-24T02:59:48.881Z,3.20
2023-05-24T03:02:18.179Z,2.90
2023-05-24T03:04:46.225Z,2.88
2023-05-24T03:07:15.066Z,3.00
2023-05-24T03:09:43.754Z,3.22
2023-05-24T03:12:12.984Z,2.80
2023-05-24T03:14:41.357Z,3.08
2023-05-24T03:17:09.393Z,2.88
2023-05-24T03:19:37.779Z,3.20
2023-05-24T03:22:06.392Z,2.80
2023-05-24T03:24:34.536Z,2.90
2023-05-24T03:27:03.765Z,2.90
2023-05-24T03:29:32.568Z,2.88
2023-05-24T03:32:01.154Z,3.10
2023-05-24T03:34:30.343Z,2.83
2023-05-24T03:36:58.811Z,2.85
2023-05-24T03:39:27.089Z,2.83
2023-05-24T03:42:18.401Z,2.80
2023-05-24T03:44:46.512Z,2.92
2023-05-24T03:47:14.808Z,2.60
2023-05-24T03:49:43.339Z,2.97
2023-05-24T03:52:12.153Z,2.72
2023-05-24T03:54:40.427Z,2.75
2023-05-24T03:57:08.734Z,2.80
2023-05-24T03:59:39.228Z,2.53
2023-05-24T04:02:08.709Z,2.50
2023-05-24T04:04:39.849Z,2.60
2023-05-24T04:07:08.363Z,2.53
2023-05-24T04:09:36.473Z,2.33
2023-05-24T04:12:04.542Z,2.63
2023-05-24T04:14:33.007Z,2.60
2023-05-24T04:17:04.594Z,2.50
2023-05-24T04:19:33.656Z,2.42
2023-05-24T04:22:01.854Z,2.50
2023-05-24T04:24:30.085Z,2.50
2023-05-24T04:26:58.461Z,2.25
2023-05-24T04:29:27.940Z,2.65
2023-05-24T04:31:56.434Z,2.17
2023-05-24T04:34:26.487Z,2.47
2023-05-24T04:36:54.675Z,2.10
2023-05-24T04:39:22.671Z,2.47
2023-05-24T04:41:51.928Z,2.30
2023-05-24T04:44:20.080Z,2.05
2023-05-24T04:46:48.229Z,2.25
2023-05-24T04:49:16.524Z,2.40
2023-05-24T04:51:45.131Z,2.30
2023-05-24T04:54:13.402Z,2.30
2023-05-24T04:56:41.771Z,2.30
2023-05-24T04:59:10.072Z,2.22
2023-05-24T05:01:39.308Z,2.10
2023-05-24T05:04:08.726Z,2.72
2023-05-24T05:06:39.813Z,2.38
2023-05-24T05:09:09.785Z,2.60
2023-05-24T05:11:37.799Z,2.30
2023-05-24T05:14:06.566Z,2.63
2023-05-24T05:16:35.165Z,2.88
2023-05-24T05:19:04.893Z,2.60
2023-05-24T05:21:33.485Z,2.30
2023-05-24T05:24:02.159Z,2.30
2023-05-24T05:26:30.929Z,2.35
2023-05-24T05:28:59.016Z,2.75
2023-05-24T05:31:27.174Z,2.30
2023-05-24T05:33:55.443Z,2.10
2023-05-24T05:36:23.573Z,2.47
2023-05-24T05:38:51.623Z,2.33
2023-05-24T05:41:20.011Z,2.50
2023-05-24T05:43:48.223Z,2.40
2023-05-24T05:46:16.420Z,2.20
2023-05-24T05:48:46.387Z,2.00
2023-05-24T05:51:14.775Z,1.90
2023-05-24T05:53:43.036Z,2.22
2023-05-24T05:56:11.172Z,2.00
2023-05-24T05:58:39.297Z,2.45
2023-05-24T06:01:07.457Z,2.08
2023-05-24T06:03:35.805Z,2.13
2023-05-24T06:06:03.970Z,2.20
2023-05-24T06:08:35.285Z,2.00
2023-05-24T06:11:03.661Z,1.92
2023-05-24T06:13:33.135Z,1.80
2023-05-24T06:16:01.535Z,2.25
2023-05-24T06:18:32.169Z,2.17
2023-05-24T06:21:00.287Z,2.15
2023-05-24T06:23:28.479Z,2.30
2023-05-24T06:25:56.796Z,1.80
2023-05-24T06:28:24.866Z,1.80
2023-05-24T06:30:53.540Z,1.63
2023-05-24T06:33:22.665Z,1.92
2023-05-24T06:35:51.280Z,1.58
2023-05-24T06:38:22.253Z,1.45
2023-05-24T06:40:51.485Z,1.60
2023-05-24T06:43:21.131Z,1.60
2023-05-24T06:45:49.619Z,1.80
2023-05-24T06:48:18.437Z,1.73
2023-05-24T06:50:47.344Z,1.77
2023-05-24T06:53:15.933Z,1.90
2023-05-24T06:55:44.082Z,1.60
2023-05-24T06:58:14.834Z,1.63
2023-05-24T07:00:43.594Z,1.58
2023-05-24T07:03:13.716Z,1.70
2023-05-24T07:05:42.052Z,1.67
2023-05-24T07:08:10.296Z,1.30
2023-05-24T07:10:38.384Z,1.50
2023-05-24T07:13:06.925Z,1.90
2023-05-24T07:15:35.054Z,1.85
2023-05-24T07:18:03.386Z,1.60
2023-05-24T07:20:31.405Z,1.50
2023-05-24T07:23:00.766Z,1.52
2023-05-24T07:25:29.071Z,1.60
2023-05-24T07:27:57.283Z,1.50
2023-05-24T07:35:29.721Z,1.40
2023-05-24T07:37:58.302Z,1.55
2023-05-24T07:40:26.855Z,1.50
2023-05-24T07:42:55.070Z,1.40
2023-05-24T07:45:23.331Z,1.70
2023-05-24T07:47:53.315Z,1.27
2023-05-24T07:50:23.314Z,2.00
2023-05-24T07:52:51.786Z,1.35
2023-05-24T07:55:20.355Z,1.63
2023-05-24T07:57:49.246Z,1.38
2023-05-24T08:00:18.089Z,1.27
2023-05-24T08:02:49.394Z,1.60
2023-05-24T08:05:18.456Z,1.60
2023-05-24T08:07:46.943Z,1.63
2023-05-24T08:10:15.230Z,1.35
2023-05-24T08:12:43.526Z,1.60
2023-05-24T08:15:12.121Z,1.60
2023-05-24T08:17:40.457Z,1.48
2023-05-24T08:20:10.199Z,1.50
2023-05-24T08:22:38.882Z,1.92
2023-05-24T08:25:07.284Z,2.00
2023-05-24T08:27:35.509Z,1.83
2023-05-24T08:30:04.634Z,1.80
2023-05-24T08:32:33.373Z,1.70
2023-05-24T08:35:18.617Z,2.00
2023-05-24T08:37:49.455Z,1.50
2023-05-24T08:40:18.363Z,1.70
2023-05-24T08:42:46.912Z,1.88
2023-05-24T08:45:16.275Z,1.98
2023-05-24T08:47:46.655Z,1.73
2023-05-24T08:50:15.604Z,2.10
2023-05-24T08:52:45.701Z,1.98
2023-05-24T08:55:15.326Z,1.55
2023-05-24T08:57:46.089Z,1.67
2023-05-24T09:00:14.960Z,1.98
2023-05-24T09:02:45.594Z,2.15
2023-05-24T09:05:22.207Z,2.00
2023-05-24T09:07:51.273Z,2.33
2023-05-24T09:10:28.341Z,2.22
2023-05-24T09:12:59.144Z,2.45
2023-05-24T09:15:27.620Z,2.20
2023-05-24T09:17:58.655Z,2.30
2023-05-24T09:20:27.734Z,2.45
2023-05-24T09:22:57.661Z,2.25
2023-05-24T09:25:30.163Z,2.30
2023-05-24T09:27:58.454Z,2.50
2023-05-24T09:30:26.611Z,2.22
2023-05-24T09:32:56.817Z,2.78
2023-05-24T09:35:27.224Z,2.38
2023-05-24T09:37:57.648Z,2.40
2023-05-24T09:40:27.384Z,2.67
2023-05-24T09:43:09.919Z,2.50
2023-05-24T09:45:49.530Z,3.10
2023-05-24T09:48:18.047Z,2.38
2023-05-24T09:51:04.390Z,2.58
2023-05-24T09:53:37.417Z,3.20
2023-05-24T09:56:09.890Z,2.60
2023-05-24T09:58:38.275Z,2.47
2023-05-24T10:01:18.898Z,2.78
2023-05-24T10:03:57.839Z,2.60
2023-05-24T10:06:26.503Z,2.65
2023-05-24T10:08:57.319Z,2.90
2023-05-24T10:11:26.551Z,2.58
2023-05-24T10:13:55.918Z,2.85
2023-05-24T10:16:24.107Z,2.75
2023-05-24T10:18:54.564Z,2.67
2023-05-24T10:21:26.194Z,2.45
2023-05-24T10:23:59.850Z,2.70
2023-05-24T10:26:32.261Z,2.80
2023-05-24T10:29:08.441Z,2.67
2023-05-24T10:31:41.553Z,2.60
2023-05-24T10:34:10.570Z,2.80
2023-05-24T10:36:40.782Z,2.85
2023-05-24T10:39:12.107Z,2.50
2023-05-24T10:41:42.185Z,2.80
2023-05-24T10:44:14.282Z,2.80
2023-05-24T10:47:11.245Z,2.60
2023-05-24T10:49:53.491Z,2.55
2023-05-24T10:52:21.969Z,2.15
2023-05-24T10:55:08.220Z,2.80
2023-05-24T10:57:37.312Z,2.65
2023-05-24T11:03:09.786Z,2.45
2023-05-24T11:05:47.083Z,2.50
2023-05-24T11:08:15.874Z,2.33
2023-05-24T11:10:44.430Z,2.70
2023-05-24T11:13:12.824Z,2.88
2023-05-24T11:15:51.147Z,2.50
2023-05-24T11:18:23.914Z,2.35
2023-05-24T11:20:52.946Z,2.53
2023-05-24T11:23:21.698Z,2.35
2023-05-24T11:25:50.031Z,2.42
2023-05-24T11:28:19.130Z,2.38
2023-05-24T11:30:48.149Z,2.30
2023-05-24T11:33:21.059Z,2.20
2023-05-24T11:35:53.665Z,2.40
2023-05-24T11:38:24.879Z,2.30
2023-05-24T11:40:53.583Z,2.45
2023-05-24T11:43:22.399Z,2.42
2023-05-24T11:45:52.287Z,2.30
2023-05-24T11:48:20.914Z,2.28
2023-05-24T11:50:50.437Z,2.28
2023-05-24T11:53:21.805Z,2.30
2023-05-24T11:55:50.058Z,2.60
2023-05-24T11:58:41.567Z,2.10
2023-05-24T12:01:24.016Z,2.28
2023-05-24T12:03:55.359Z,2.28
2023-05-24T12:06:23.815Z,2.55
2023-05-24T12:08:52.177Z,2.63
2023-05-24T12:11:22.594Z,2.47
2023-05-24T12:13:51.030Z,2.45
2023-05-24T12:16:19.409Z,2.25
2023-05-24T12:19:02.488Z,2.45
2023-05-24T12:21:35.295Z,2.50
2023-05-24T12:24:14.166Z,2.33
2023-05-24T12:26:43.914Z,2.50
2023-05-24T12:29:13.393Z,2.42
2023-05-24T12:31:42.600Z,2.40
2023-05-24T12:34:15.590Z,2.13
2023-05-24T12:36:43.987Z,2.40
2023-05-24T12:39:19.534Z,2.70
2023-05-24T12:41:54.934Z,2.67
2023-05-24T12:44:34.903Z,2.55
2023-05-24T12:47:05.216Z,2.47
2023-05-24T12:49:34.103Z,2.90
2023-05-24T12:52:02.839Z,3.17
2023-05-24T12:54:31.309Z,2.75
2023-05-24T12:57:00.564Z,3.00
2023-05-24T12:59:29.107Z,3.00
2023-05-24T13:01:58.190Z,2.30
2023-05-24T13:04:27.616Z,2.80
2023-05-24T13:06:56.335Z,3.05
2023-05-24T13:09:26.219Z,2.92
2023-05-24T13:11:55.368Z,2.95
2023-05-24T13:14:23.702Z,2.90
2023-05-24T13:16:52.173Z,2.55
2023-05-24T13:19:20.696Z,2.78
2023-05-24T13:21:49.157Z,3.00
2023-05-24T13:24:17.751Z,2.95
2023-05-24T13:26:46.445Z,3.03
2023-05-24T13:31:46.216Z,2.60
2023-05-24T13:34:14.787Z,2.83
2023-05-24T13:36:43.770Z,2.58
2023-05-24T13:39:16.521Z,3.10
2023-05-24T13:41:45.702Z,2.95
2023-05-24T13:44:15.153Z,2.85
2023-05-24T13:46:44.617Z,2.80
2023-05-24T13:49:13.300Z,2.90
2023-05-24T13:51:42.342Z,2.70
2023-05-24T13:54:11.481Z,2.88
2023-05-24T13:56:40.368Z,2.70
2023-05-24T13:59:08.710Z,2.60
2023-05-24T14:01:40.922Z,3.30
2023-05-24T14:04:09.531Z,2.60
2023-05-24T14:06:38.073Z,2.90
2023-05-24T14:09:09.808Z,2.90
2023-05-24T14:11:38.550Z,3.08
2023-05-24T14:14:57.645Z,3.00
2023-05-24T14:16:55.643Z,3.08
2023-05-24T14:19:24.067Z,2.95
2023-05-24T14:21:52.422Z,2.80
2023-05-24T14:24:21.517Z,2.70
2023-05-24T14:26:50.002Z,2.83
2023-05-24T14:29:18.371Z,2.47
2023-05-24T14:31:46.781Z,3.05
2023-05-24T14:34:15.414Z,2.85
2023-05-24T14:36:43.609Z,3.03
2023-05-24T14:39:12.390Z,2.60
2023-05-24T14:41:40.904Z,2.85
2023-05-24T14:44:09.406Z,2.90
2023-05-24T14:46:37.973Z,2.83
2023-05-24T14:49:06.716Z,2.70
2023-05-24T14:51:35.870Z,2.50
2023-05-24T14:54:05.017Z,2.95
2023-05-24T14:56:34.412Z,2.70
2023-05-24T14:59:03.938Z,3.00
2023-05-24T15:01:32.938Z,2.85
2023-05-24T15:04:02.136Z,2.70
2023-05-24T15:06:35.126Z,2.80
2023-05-24T15:09:04.228Z,2.90
2023-05-24T15:11:33.329Z,3.00
2023-05-24T15:14:02.236Z,2.40
2023-05-24T15:16:30.784Z,2.60
2023-05-24T15:18:59.203Z,2.40
2023-05-24T15:21:27.470Z,2.60
2023-05-24T15:23:56.025Z,2.50
2023-05-24T15:26:24.360Z,2.80
2023-05-24T15:28:52.976Z,2.65
2023-05-24T15:31:21.637Z,2.53
2023-05-24T15:33:50.314Z,2.92
2023-05-24T15:36:19.342Z,2.40
2023-05-24T15:38:47.891Z,2.60
2023-05-24T15:41:16.738Z,2.80
2023-05-24T15:43:45.467Z,2.42
2023-05-24T15:46:13.940Z,2.85
2023-05-24T15:48:42.476Z,2.63
2023-05-24T15:53:42.771Z,2.65
2023-05-24T15:56:11.969Z,2.50
2023-05-24T15:58:40.216Z,2.55
2023-05-24T16:01:08.449Z,2.55
2023-05-24T16:03:38.260Z,2.60
2023-05-24T16:06:08.021Z,2.50
2023-05-24T16:08:36.348Z,2.95
2023-05-24T16:11:08.524Z,2.65
2023-05-24T16:13:37.073Z,2.75
2023-05-24T16:16:05.925Z,3.10
2023-05-24T16:18:35.847Z,3.00
2023-05-24T16:21:04.574Z,2.90
2023-05-24T16:23:33.369Z,3.10
2023-05-24T16:26:01.800Z,3.28
2023-05-24T16:28:30.459Z,3.30
2023-05-24T16:31:00.589Z,3.50
2023-05-24T16:33:29.163Z,3.58
2023-05-24T16:35:58.587Z,3.05
2023-05-24T16:38:28.114Z,3.53
2023-05-24T16:40:56.400Z,3.00
2023-05-24T16:43:24.932Z,3.35
2023-05-24T16:45:53.583Z,3.42
2023-05-24T16:48:28.904Z,3.60
2023-05-24T16:51:00.943Z,3.05
2023-05-24T16:53:29.819Z,3.30
2023-05-24T16:55:58.457Z,3.17
2023-05-24T16:58:28.478Z,3.33
2023-05-24T17:00:57.202Z,3.25
2023-05-24T17:03:29.374Z,2.95
2023-05-24T17:06:03.899Z,3.30
2023-05-24T17:08:36.304Z,4.00
2023-05-24T17:11:05.931Z,3.63
2023-05-24T17:13:34.636Z,3.63
2023-05-24T17:16:05.249Z,3.78
2023-05-24T17:18:33.451Z,3.78
2023-05-24T17:21:03.279Z,3.47
2023-05-24T17:23:33.009Z,3.80
2023-05-24T17:26:03.052Z,3.83
2023-05-24T17:28:31.532Z,3.72
2023-05-24T17:31:01.715Z,3.90
2023-05-24T17:33:31.866Z,3.90
2023-05-24T17:36:04.552Z,3.55
2023-05-24T17:38:37.968Z,3.80
2023-05-24T17:41:09.687Z,3.78
2023-05-24T17:43:40.331Z,4.15
2023-05-24T17:46:09.108Z,3.80
2023-05-24T17:48:39.204Z,4.50
2023-05-24T17:51:09.522Z,4.05
2023-05-24T17:53:38.684Z,4.40
2023-05-24T17:56:08.160Z,4.00
2023-05-24T17:58:37.423Z,5.15
2023-05-24T18:01:07.925Z,4.00
2023-05-24T18:03:38.072Z,4.70
2023-05-24T18:06:07.679Z,4.68
2023-05-24T18:08:38.460Z,3.95
2023-05-24T18:11:10.600Z,4.00
2023-05-24T18:13:40.088Z,4.30
2023-05-24T18:16:10.667Z,4.22
2023-05-24T18:18:39.897Z,4.22
2023-05-24T18:21:10.158Z,4.15
2023-05-24T18:23:39.308Z,4.35
2023-05-24T18:26:09.737Z,4.53
2023-05-24T18:28:39.398Z,4.25
2023-05-24T18:31:10.815Z,4.70
2023-05-24T18:33:39.550Z,4.75
2023-05-24T18:36:08.566Z,4.75
2023-05-24T18:38:37.734Z,4.43
2023-05-24T18:41:10.266Z,4.30
2023-05-24T18:43:39.046Z,4.80
2023-05-24T18:46:07.582Z,4.10
2023-05-24T18:48:36.180Z,5.05
2023-05-24T18:51:04.667Z,4.60
2023-05-24T18:53:33.362Z,4.40
2023-05-24T18:56:02.510Z,4.70
2023-05-24T18:58:31.634Z,4.70
2023-05-24T19:00:59.977Z,4.82
2023-05-24T19:03:28.899Z,4.60
2023-05-24T19:05:57.368Z,4.88
2023-05-24T19:08:25.741Z,4.57
2023-05-24T19:10:54.095Z,4.60
2023-05-24T19:13:22.528Z,4.88
2023-05-24T19:15:50.976Z,4.65
2023-05-24T19:18:19.931Z,4.93
2023-05-24T19:20:48.097Z,5.38
2023-05-24T19:23:16.636Z,4.72
2023-05-24T19:25:45.316Z,5.10
2023-05-24T19:28:13.920Z,4.70
2023-05-24T19:30:42.730Z,4.75
2023-05-24T19:33:11.811Z,5.00
2023-05-24T19:35:40.569Z,5.50
2023-05-24T19:38:08.962Z,5.60
2023-05-24T19:40:37.247Z,5.22
2023-05-24T19:43:05.799Z,4.95
2023-05-24T19:45:34.257Z,6.00
2023-05-24T19:48:02.985Z,5.35
2023-05-24T19:50:31.617Z,5.43
2023-05-24T19:52:59.971Z,4.80
2023-05-24T19:55:28.458Z,4.80
2023-05-24T19:57:57.029Z,6.00
2023-05-24T20:00:25.484Z,5.10
2023-05-24T20:02:53.880Z,5.20
2023-05-24T20:05:22.709Z,4.80
2023-05-24T20:07:51.241Z,5.68
2023-05-24T20:10:19.719Z,5.70
2023-05-24T20:12:48.382Z,5.40
2023-05-24T20:15:19.732Z,4.90
2023-05-24T20:17:48.790Z,5.15
2023-05-24T20:20:17.558Z,5.20
2023-05-24T20:22:46.157Z,5.43
2023-05-24T20:25:14.347Z,4.75
2023-05-24T20:27:44.301Z,5.18
2023-05-24T20:30:13.562Z,5.25
2023-05-24T20:32:42.060Z,5.68
2023-05-24T20:35:11.422Z,5.30
2023-05-24T20:37:40.826Z,4.70
2023-05-24T20:40:09.768Z,5.07
2023-05-24T20:42:38.215Z,4.93
2023-05-24T20:45:07.423Z,5.05
2023-05-24T20:47:35.662Z,4.95
2023-05-24T20:50:04.193Z,5.03
2023-05-24T20:52:32.269Z,5.22
2023-05-24T20:55:00.248Z,5.00
2023-05-24T20:57:28.185Z,5.15
2023-05-24T20:59:56.222Z,4.97
2023-05-24T21:02:25.110Z,5.00
2023-05-24T21:04:53.578Z,5.00
2023-05-24T21:07:22.903Z,4.80
2023-05-24T21:09:50.876Z,5.47
2023-05-24T21:12:18.736Z,5.20
2023-05-24T21:14:46.732Z,4.70
2023-05-24T21:17:14.842Z,5.32
2023-05-24T21:19:43.008Z,5.82
2023-05-24T21:22:10.950Z,5.10
2023-05-24T21:24:38.822Z,5.18
2023-05-24T21:27:08.054Z,4.80
2023-05-24T21:29:41.358Z,4.43
2023-05-24T21:32:09.158Z,5.32
2023-05-24T21:34:37.194Z,4.75
2023-05-24T21:37:05.391Z,5.10
2023-05-24T21:39:33.680Z,4.97
2023-05-24T21:42:02.251Z,4.50
2023-05-24T21:44:30.160Z,4.72
2023-05-24T21:46:58.162Z,5.32
2023-05-24T21:49:27.639Z,4.50
2023-05-24T21:51:55.921Z,5.15
2023-05-24T21:54:24.041Z,4.50
2023-05-24T21:56:51.932Z,4.25
2023-05-24T21:59:21.494Z,4.95
2023-05-24T22:01:49.597Z,4.35
2023-05-24T22:04:17.875Z,4.80
2023-05-24T22:06:46.290Z,4.22
2023-05-24T22:09:14.309Z,4.50
2023-05-24T22:11:42.217Z,4.53
2023-05-24T22:14:11.134Z,4.38
2023-05-24T22:16:39.065Z,3.95
2023-05-24T22:19:12.408Z,4.20
2023-05-24T22:21:43.128Z,3.83
2023-05-24T22:24:11.317Z,4.32
2023-05-24T22:26:41.814Z,4.00
2023-05-24T22:29:09.875Z,3.70
2023-05-24T22:31:37.867Z,4.78
2023-05-24T22:34:06.233Z,4.47
2023-05-24T22:36:34.648Z,4.82
2023-05-24T22:39:02.969Z,4.57
2023-05-24T22:41:30.886Z,4.70
2023-05-24T22:43:58.774Z,5.30
2023-05-24T22:46:26.925Z,4.30
2023-05-24T22:48:56.796Z,4.18
2023-05-24T22:51:25.121Z,4.25
2023-05-24T22:53:53.082Z,4.03
2023-05-24T22:56:22.484Z,4.28
2023-05-24T22:58:53.204Z,4.10
2023-05-24T23:01:21.537Z,4.30
2023-05-24T23:03:49.443Z,4.43
2023-05-24T23:06:19.774Z,4.75
2023-05-24T23:08:49.700Z,4.38
2023-05-24T23:11:18.239Z,4.75
2023-05-24T23:13:46.435Z,4.82
2023-05-24T23:16:18.173Z,4.47
2023-05-24T23:18:46.557Z,4.38
2023-05-24T23:21:17.395Z,4.90
2023-05-24T23:23:46.364Z,4.45
2023-05-24T23:26:14.267Z,4.40
2023-05-24T23:28:42.193Z,4.75
2023-05-24T23:31:10.190Z,4.70
2023-05-24T23:33:38.147Z,4.80
2023-05-24T23:36:06.480Z,4.40
2023-05-24T23:38:34.344Z,4.63
2023-05-24T23:41:02.269Z,4.90
2023-05-24T23:43:31.145Z,4.65
2023-05-24T23:45:59.256Z,4.50
2023-05-24T23:48:27.033Z,4.72
2023-05-24T23:50:55.053Z,4.78
2023-05-24T23:53:22.865Z,4.63
2023-05-24T23:55:50.936Z,4.57
2023-05-24T23:58:19.010Z,4.15
